Time;durP1;ratioP1;P1;durP2;ratioP2;P2;SDS_P1;SDS_P2;PMS_P1;PMS_P2;Temp;Humidity;BMP_temperature;BMP_pressure;BME280_temperature;BME280_humidity;BME280_pressure;Samples;Min_cycle;Max_cycle;Signal;HPM_P1;HPM_P2
2022/04/18 00:01:40;;;;;;;19.38;14.90;;;5.20;95.80;;;4.86;65.03;101897.72;4753946;30;20199;-66
2022/04/18 00:04:09;;;;;;;16.65;14.93;;;5.10;96.80;;;5.04;64.87;101888.84;4752553;30;20667;-66
2022/04/18 00:06:38;;;;;;;14.43;12.93;;;5.20;96.70;;;4.90;65.42;101897.31;4754173;30;20278;-66
2022/04/18 00:09:09;;;;;;;21.42;15.80;;;5.20;97.50;;;4.85;65.62;101890.66;4754089;30;20184;-65
2022/04/18 00:11:38;;;;;;;19.38;13.93;;;5.20;99.00;;;4.81;65.66;101896.31;4753879;30;20810;-66
2022/04/18 00:14:08;;;;;;;14.40;12.90;;;5.10;99.50;;;4.68;66.14;101889.53;4767495;30;20242;-65
2022/04/18 00:16:37;;;;;;;15.35;12.10;;;5.10;99.90;;;4.50;66.37;101886.72;4753960;30;20176;-66
2022/04/18 00:19:06;;;;;;;17.10;13.80;;;4.90;99.90;;;4.43;66.68;101884.72;4754222;30;20261;-66
2022/04/18 00:21:36;;;;;;;16.55;14.65;;;4.90;99.90;;;4.59;66.66;101885.88;4753942;30;20271;-66
2022/04/18 00:24:05;;;;;;;25.05;19.58;;;4.90;99.90;;;4.85;65.76;101886.16;4753849;30;20231;-65
2022/04/18 00:26:39;;;;;;;16.83;15.02;;;5.00;99.90;;;4.90;65.66;101883.03;4754064;30;20207;-64
2022/04/18 00:29:09;;;;;;;19.38;16.33;;;5.10;99.90;;;4.88;65.97;101877.00;4767041;30;20630;-66
2022/04/18 00:31:39;;;;;;;22.90;14.43;;;5.10;99.90;;;4.87;65.90;101868.09;4753454;30;20278;-66
2022/04/18 00:34:08;;;;;;;16.15;13.50;;;5.10;99.90;;;4.81;65.75;101874.88;4752119;30;20248;-66
2022/04/18 00:36:37;;;;;;;18.50;13.80;;;5.10;99.40;;;4.77;66.04;101868.09;4767551;30;20187;-65
2022/04/18 00:39:06;;;;;;;15.00;13.05;;;5.00;99.90;;;4.73;66.14;101861.34;4753435;30;20199;-64
2022/04/18 00:41:38;;;;;;;17.55;15.75;;;5.00;99.90;;;4.64;66.53;101862.19;4752061;30;20253;-65
2022/04/18 00:44:07;;;;;;;25.52;18.27;;;4.90;99.90;;;4.55;66.73;101854.13;4753089;30;20240;-66
2022/04/18 00:46:37;;;;;;;27.35;18.77;;;4.90;99.90;;;4.59;66.71;101856.38;4753398;30;20598;-65
2022/04/18 00:49:06;;;;;;;23.40;19.38;;;4.90;99.90;;;4.61;66.73;101851.72;4753488;30;20244;-65
2022/04/18 00:51:36;;;;;;;20.63;17.15;;;4.90;99.90;;;4.68;66.41;101847.50;4752815;30;20290;-66
2022/04/18 00:54:05;;;;;;;19.38;16.00;;;4.90;99.90;;;4.48;66.58;101839.56;4752665;30;20231;-66
2022/04/18 00:56:35;;;;;;;18.00;15.35;;;4.80;99.90;;;4.47;67.72;101843.22;4766389;30;20223;-65
2022/04/18 00:59:06;;;;;;;21.55;16.77;;;4.80;99.90;;;4.37;67.51;101837.88;4753099;30;20721;-66
2022/04/18 01:01:37;;;;;;;15.50;13.90;;;4.70;99.90;;;4.26;67.75;101846.03;4752764;30;20669;-66
2022/04/18 01:04:07;;;;;;;15.48;13.95;;;4.60;99.90;;;4.12;68.15;101839.22;4751662;30;20697;-66
2022/04/18 01:06:36;;;;;;;16.35;14.65;;;4.50;99.90;;;4.03;68.66;101839.19;4753247;30;20194;-65
2022/04/18 01:09:05;;;;;;;22.27;14.98;;;4.40;99.90;;;4.05;69.08;101842.59;4767067;30;20195;-66
2022/04/18 01:11:34;;;;;;;18.58;15.60;;;4.40;99.90;;;4.02;69.76;101840.22;4751795;30;20203;-65
2022/04/18 01:14:30;;;;;;;19.42;15.35;;;4.40;99.90;;;3.95;70.11;101837.22;4765394;30;20242;-65
2022/04/18 01:17:25;;;;;;;20.17;16.00;;;4.30;99.90;;;3.92;70.34;101830.28;4752711;30;20281;-65
2022/04/18 01:20:19;;;;;;;15.48;13.85;;;4.30;99.90;;;3.90;70.19;101824.25;4753129;30;20217;-66
2022/04/18 01:23:07;;;;;;;15.90;13.05;;;4.20;99.90;;;4.10;70.04;101829.66;4753888;30;20202;-66
2022/04/18 01:31:24;;;;;;;14.52;12.60;;;4.30;99.90;;;4.08;69.82;101818.22;4752548;30;20195;-65
2022/04/18 01:33:54;;;;;;;16.38;13.20;;;4.30;99.90;;;4.05;69.80;101807.78;4765830;30;20652;-66
2022/04/18 01:36:24;;;;;;;17.08;13.82;;;4.30;99.90;;;3.96;70.36;101817.50;4751351;30;20280;-65
2022/04/18 01:38:55;;;;;;;16.48;14.77;;;4.30;99.90;;;4.00;70.25;101808.19;4751706;30;20678;-64
2022/04/18 01:41:24;;;;;;;20.83;14.80;;;4.30;99.90;;;3.91;70.70;101807.19;4766099;30;20674;-64
2022/04/18 01:43:54;;;;;;;16.90;13.60;;;4.20;99.90;;;3.85;71.43;101807.72;4765838;30;20227;-65
2022/04/18 01:46:23;;;;;;;16.98;13.75;;;4.20;99.90;;;4.01;70.94;101809.91;4751596;30;20238;-67
2022/04/18 01:48:52;;;;;;;16.30;13.35;;;4.30;99.90;;;3.92;70.53;101806.19;4751656;30;20213;-66
2022/04/18 01:51:21;;;;;;;14.63;12.90;;;4.20;99.90;;;3.91;71.00;101804.50;4751546;30;20199;-66
2022/04/18 01:53:58;;;;;;;16.00;14.15;;;4.20;99.90;;;3.77;70.72;101802.22;4751333;30;20242;-65
2022/04/18 01:56:27;;;;;;;16.58;14.00;;;4.10;99.90;;;3.69;71.28;101796.69;4751802;30;20203;-66
2022/04/18 01:58:56;;;;;;;18.92;13.98;;;4.10;99.90;;;3.73;71.38;101790.06;4751216;30;20674;-66
2022/04/18 02:01:25;;;;;;;18.00;13.35;;;4.10;99.90;;;3.65;71.99;101791.75;4751522;30;20211;-65
2022/04/18 02:03:53;;;;;;;17.52;12.60;;;4.00;99.90;;;3.82;71.38;101789.28;4751371;30;20220;-66
2022/04/18 02:06:22;;;;;;;20.45;13.90;;;4.10;99.90;;;3.94;70.72;101788.16;4752678;30;20195;-65
2022/04/18 02:08:53;;;;;;;21.25;14.38;;;4.10;99.90;;;3.91;71.22;101785.78;4751373;30;20762;-66
2022/04/18 02:11:27;;;;;;;14.63;13.10;;;4.20;99.90;;;3.75;71.19;101777.41;4751132;30;20254;-66
2022/04/18 02:13:58;;;;;;;14.00;12.55;;;4.10;99.90;;;3.79;71.10;101784.19;4750951;30;20322;-65
2022/04/18 02:16:28;;;;;;;13.88;12.10;;;4.10;99.90;;;3.78;71.25;101786.97;4751025;30;20247;-65
2022/04/18 02:18:59;;;;;;;17.55;12.35;;;4.10;99.90;;;3.82;71.05;101777.72;4765836;30;20203;-66
2022/04/18 02:21:28;;;;;;;22.42;16.58;;;4.10;99.90;;;3.87;71.02;101778.97;4751216;30;20646;-66
2022/04/18 02:23:57;;;;;;;26.85;21.95;;;4.10;99.90;;;3.82;70.91;101778.56;4751110;30;20215;-66
2022/04/18 02:26:27;;;;;;;34.60;31.02;;;4.10;99.90;;;3.67;71.12;101779.06;4753306;30;20203;-65
2022/04/18 02:29:10;;;;;;;38.75;34.50;;;4.00;99.90;;;3.63;71.28;101783.00;4754208;30;20203;-66
2022/04/18 02:34:21;;;;;;;67.13;56.47;;;4.00;99.90;;;3.76;71.15;101773.75;4754778;30;20239;-66
2022/04/18 02:36:50;;;;;;;37.30;30.85;;;4.00;99.90;;;3.80;70.86;101780.53;4754109;30;20249;-66
2022/04/18 02:39:23;;;;;;;33.30;22.67;;;4.00;99.90;;;3.64;71.11;101771.28;4754160;30;20556;-66
2022/04/18 02:41:53;;;;;;;25.10;18.45;;;3.90;99.90;;;3.68;71.30;101768.22;4755169;30;20576;-65
2022/04/18 02:44:23;;;;;;;28.80;18.35;;;3.90;99.90;;;3.83;70.53;101771.34;4753977;30;20334;-65
2022/04/18 02:46:53;;;;;;;35.55;29.10;;;3.90;99.90;;;3.74;70.66;101765.00;4754799;30;20203;-66
2022/04/18 02:49:22;;;;;;;27.08;23.27;;;3.90;99.90;;;3.62;71.37;101766.09;4753664;30;20685;-66
2022/04/18 02:51:51;;;;;;;26.92;22.58;;;3.90;99.90;;;3.54;71.50;101768.59;4768256;30;20191;-66
2022/04/18 02:54:22;;;;;;;24.60;21.70;;;3.80;99.90;;;3.41;71.89;101762.63;4753316;30;20235;-66
2022/04/18 02:56:50;;;;;;;18.17;13.95;;;3.70;99.90;;;3.41;72.03;101765.31;4754771;30;20184;-66
2022/04/18 02:59:21;;;;;;;21.05;15.43;;;3.60;99.90;;;3.38;72.31;101757.56;4768347;30;20199;-66
2022/04/18 03:01:49;;;;;;;20.33;14.82;;;3.60;99.90;;;3.53;71.55;101755.38;4754699;30;20184;-66
2022/04/18 03:04:25;;;;;;;16.95;14.40;;;3.60;99.90;;;3.57;71.52;101752.28;4753361;30;20658;-66
2022/04/18 03:06:54;;;;;;;14.23;12.85;;;3.60;99.90;;;3.63;71.49;101757.06;4768400;30;20643;-66
2022/04/18 03:09:23;;;;;;;17.30;12.60;;;3.70;99.90;;;3.44;71.58;101751.66;4768766;30;20622;-66
2022/04/18 03:11:52;;;;;;;15.00;11.82;;;3.60;99.90;;;3.49;71.65;101749.41;4753587;30;20212;-65
2022/04/18 03:14:24;;;;;;;16.35;11.88;;;3.60;99.90;;;3.35;71.99;101749.78;4753194;30;20231;-65
2022/04/18 03:17:00;;;;;;;14.48;12.80;;;3.60;99.90;;;3.24;72.12;101744.56;4753156;30;20204;-65
2022/04/18 03:19:30;;;;;;;16.45;12.88;;;3.50;99.90;;;3.31;72.04;101743.88;4753441;30;20262;-66
2022/04/18 03:22:00;;;;;;;18.17;13.18;;;3.50;99.90;;;3.35;71.80;101744.44;4769898;30;20210;-65
2022/04/18 03:24:33;;;;;;;16.15;13.50;;;3.50;99.90;;;3.27;72.06;101733.56;4754404;30;20211;-65
2022/04/18 03:27:28;;;;;;;14.30;12.05;;;3.50;99.90;;;3.27;72.01;101738.91;4755836;30;20212;-65
2022/04/18 03:29:59;;;;;;;16.33;11.77;;;3.40;99.90;;;3.18;72.22;101735.22;4753341;30;20203;-65
2022/04/18 03:32:35;;;;;;;15.70;11.63;;;3.40;99.90;;;3.32;71.53;101728.66;4752971;30;20298;-65
2022/04/18 03:35:05;;;;;;;17.95;12.35;;;3.40;99.90;;;3.24;71.80;101740.06;4752923;30;20266;-65
2022/04/18 03:40:20;;;;;;;19.58;12.68;;;3.40;99.90;;;3.08;72.20;101725.47;4767858;30;20203;-65
2022/04/18 03:42:49;;;;;;;14.75;12.40;;;3.30;99.90;;;2.97;72.48;101729.06;4752708;30;20204;-66
2022/04/18 03:45:20;;;;;;;12.95;10.65;;;3.20;99.90;;;2.97;72.64;101729.91;4795477;24;20233;-67
2022/04/18 03:47:49;;;;;;;13.60;10.73;;;3.20;99.90;;;3.05;72.17;101724.72;4833534;29;20193;-67
2022/04/18 03:50:18;;;;;;;18.27;11.95;;;3.20;99.90;;;2.96;72.43;101730.88;4823583;29;20197;-67
2022/04/18 03:52:47;;;;;;;18.30;13.45;;;3.20;99.90;;;2.91;72.36;101725.09;4824942;29;20181;-67
2022/04/18 03:55:36;;;;;;;15.35;10.40;;;3.10;99.90;;;2.94;72.13;101721.31;4823998;29;20758;-67
2022/04/18 03:58:16;;;;;;;14.40;11.48;;;3.10;99.90;;;2.95;72.07;101723.84;4824724;29;20177;-66
2022/04/18 04:00:47;;;;;;;15.40;12.48;;;3.10;99.90;;;2.99;71.80;101722.63;4823880;29;20240;-67
2022/04/18 04:03:17;;;;;;;13.88;11.07;;;3.20;99.90;;;2.99;71.72;101725.28;4823961;29;20565;-67
2022/04/18 04:05:51;;;;;;;16.80;12.63;;;3.20;99.90;;;3.03;71.55;101723.19;4824080;29;20217;-66
2022/04/18 04:08:22;;;;;;;13.52;11.73;;;3.20;99.90;;;2.94;71.68;101727.50;4823997;29;20204;-67
2022/04/18 04:10:55;;;;;;;14.73;11.98;;;3.10;99.90;;;2.95;71.60;101725.69;4824036;29;20226;-66
2022/04/18 04:13:27;;;;;;;14.18;10.43;;;3.10;99.90;;;3.09;71.30;101729.84;4823544;29;20196;-67
2022/04/18 04:16:08;;;;;;;16.60;11.93;;;3.20;99.90;;;3.00;71.46;101731.50;4823890;29;20251;-67
2022/04/18 04:18:37;;;;;;;14.35;10.68;;;3.20;99.90;;;3.01;71.33;101739.34;4823370;29;20208;-67
2022/04/18 04:21:09;;;;;;;13.02;11.65;;;3.20;99.90;;;2.98;71.39;101733.44;4823465;29;20624;-67
2022/04/18 04:23:37;;;;;;;12.48;10.50;;;3.10;99.90;;;2.96;71.34;101738.06;4823310;29;20276;-66
2022/04/18 04:26:32;;;;;;;13.93;11.20;;;3.10;99.90;;;3.00;71.01;101728.81;4823961;29;20690;-66
2022/04/18 04:29:02;;;;;;;15.45;10.93;;;3.10;99.90;;;3.00;71.03;101724.28;4825290;29;20639;-66
2022/04/18 04:31:48;;;;;;;19.42;11.52;;;3.10;99.90;;;3.28;70.84;101725.41;4824001;29;20201;-66
2022/04/18 04:34:18;;;;;;;12.88;10.23;;;3.20;99.90;;;4.29;68.63;101717.16;4823515;29;20228;-65
2022/04/18 04:37:01;;;;;;;15.85;11.98;;;3.50;99.90;;;5.65;63.22;101716.59;4823189;29;20205;-67
2022/04/18 04:39:30;;;;;;;11.50;8.73;;;4.20;99.90;;;6.37;60.74;101708.44;4823166;29;20208;-67
2022/04/18 04:41:59;;;;;;;15.05;10.85;;;4.80;96.80;;;6.94;58.95;101703.47;4823008;29;20201;-66
2022/04/18 04:44:29;;;;;;;17.02;10.50;;;5.30;88.50;;;7.06;58.41;101701.38;4822561;29;20224;-68
2022/04/18 04:47:01;;;;;;;15.43;10.98;;;5.50;77.10;;;7.60;56.99;101700.91;4822938;29;20204;-66
2022/04/18 04:49:32;;;;;;;14.30;11.95;;;5.80;61.70;;;8.10;55.55;101697.34;4822384;29;20197;-68
2022/04/18 04:52:14;;;;;;;14.25;10.90;;;6.20;49.00;;;7.99;55.64;101701.19;4822679;29;20232;-67
2022/04/18 04:54:45;;;;;;;16.10;12.05;;;6.40;49.70;;;7.88;55.60;101698.84;4822680;29;20229;-66
2022/04/18 04:57:20;;;;;;;14.05;11.45;;;6.50;47.60;;;7.89;55.38;101702.38;4822845;29;20197;-66
2022/04/18 05:00:15;;;;;;;13.70;10.18;;;6.60;43.70;;;7.73;55.93;101697.78;4816130;29;20197;-66
2022/04/18 05:03:20;;;;;;;13.45;11.50;;;6.50;43.30;;;7.82;55.68;101699.47;4802870;29;20673;-67
2022/04/18 05:05:50;;;;;;;17.63;11.60;;;;;;;8.52;54.17;101700.75;4819323;29;20221;-67
2022/04/18 05:08:41;;;;;;;13.27;10.85;;;;;;;8.99;52.38;101698.19;4823926;29;20703;-67
2022/04/18 05:11:11;;;;;;;15.57;11.23;;;;;;;9.02;52.26;101699.69;4822570;29;20205;-66
2022/04/18 05:13:51;;;;;;;12.85;10.88;;;7.30;42.30;;;6.81;57.07;101698.53;4824304;29;20176;-66
2022/04/18 05:16:33;;;;;;;18.85;12.25;;;6.60;42.90;;;5.37;61.76;101705.03;4822923;29;20253;-66
2022/04/18 05:19:14;;;;;;;17.42;11.80;;;5.70;51.00;;;4.95;63.28;101707.28;4822554;29;20205;-67
2022/04/18 05:21:42;;;;;;;18.65;12.63;;;5.30;67.20;;;4.65;65.10;101708.34;4824322;29;21017;-66
2022/04/18 05:24:25;;;;;;;17.77;13.80;;;4.90;88.40;;;4.53;65.53;101704.16;4822452;29;20594;-67
2022/04/18 05:26:54;;;;;;;16.67;13.18;;;4.70;97.50;;;4.24;66.64;101708.69;4823919;29;20190;-66
2022/04/18 05:29:23;;;;;;;18.23;13.73;;;4.40;99.90;;;4.23;67.11;101696.25;4822780;29;20690;-66
2022/04/18 05:31:52;;;;;;;17.25;14.10;;;4.30;99.90;;;4.33;66.76;101697.97;4826057;29;20247;-67
2022/04/18 05:34:23;;;;;;;18.23;12.40;;;4.40;99.90;;;4.46;66.48;101696.81;4827577;29;20797;-67
2022/04/18 05:37:00;;;;;;;16.75;13.02;;;4.40;99.90;;;4.51;66.55;101705.25;4827140;29;20291;-67
2022/04/18 05:39:58;;;;;;;21.83;13.10;;;4.50;99.90;;;4.71;66.07;101706.94;4825711;29;20560;-66
2022/04/18 05:42:29;;;;;;;20.65;14.43;;;4.60;99.90;;;4.94;65.67;101705.59;4825932;29;20227;-66
2022/04/18 05:45:08;;;;;;;21.52;14.38;;;4.80;99.90;;;5.12;65.17;101708.38;4825904;29;20220;-66
2022/04/18 05:47:38;;;;;;;22.60;14.95;;;5.00;99.90;;;5.07;64.94;101703.44;4824581;29;20208;-66
2022/04/18 05:50:10;;;;;;;22.23;15.00;;;5.10;99.90;;;5.08;65.18;101709.66;4824476;29;20207;-67
2022/04/18 05:52:51;;;;;;;21.92;14.40;;;5.10;99.90;;;5.07;64.95;101702.59;4824916;29;20311;-69
2022/04/18 05:55:43;;;;;;;19.90;15.00;;;5.20;99.90;;;5.27;65.12;101708.72;4815336;29;20237;-67
2022/04/18 05:58:32;;;;;;;18.13;13.50;;;5.30;99.90;;;5.31;64.85;101710.13;4816077;29;20206;-66
2022/04/18 06:01:06;;;;;;;24.83;14.98;;;5.30;98.50;;;5.49;64.26;101709.19;4823283;29;20228;-67
2022/04/18 06:03:35;;;;;;;24.45;14.23;;;5.40;98.70;;;5.69;63.55;101705.41;4816197;29;20729;-67
2022/04/18 06:06:05;;;;;;;20.70;14.27;;;5.60;96.70;;;5.93;63.07;101709.38;4824107;29;20231;-66
2022/04/18 06:08:34;;;;;;;24.30;19.05;;;5.80;94.50;;;5.97;62.64;101713.44;4810004;29;20218;-67
2022/04/18 06:11:06;;;;;;;20.42;15.68;;;6.00;91.00;;;6.18;62.70;101708.59;4808095;29;20201;-66
2022/04/18 06:14:00;;;;;;;21.40;16.98;;;6.10;91.50;;;6.41;61.99;101714.34;4808020;29;20769;-64
2022/04/18 06:16:29;;;;;;;23.10;16.75;;;6.20;88.50;;;6.54;61.83;101710.25;4807225;29;20224;-67
2022/04/18 06:18:58;;;;;;;24.60;16.80;;;6.40;83.10;;;6.73;61.19;101711.09;4808474;29;20562;-66
2022/04/18 06:21:29;;;;;;;27.67;16.92;;;6.60;78.10;;;6.87;60.79;101715.88;4807860;29;20570;-66
2022/04/18 06:23:59;;;;;;;22.30;16.40;;;6.80;70.90;;;6.96;60.63;101706.84;4806821;29;20205;-67
2022/04/18 06:26:41;;;;;;;25.45;17.00;;;6.90;67.40;;;7.26;60.28;101708.22;4807087;29;20197;-68
2022/04/18 06:29:11;;;;;;;30.05;18.25;;;7.10;63.20;;;7.49;59.14;101712.00;4806687;29;20205;-67
2022/04/18 06:31:46;;;;;;;32.83;18.50;;;7.40;57.20;;;7.51;59.00;101703.75;4806760;29;20640;-66
2022/04/18 06:34:15;;;;;;;26.65;16.88;;;7.50;53.90;;;7.53;59.21;101701.75;4790633;29;20210;-67
2022/04/18 06:36:46;;;;;;;26.00;15.25;;;7.50;52.80;;;7.66;58.04;101704.81;4788955;29;20234;-68
2022/04/18 06:39:24;;;;;;;24.88;17.17;;;7.60;50.00;;;7.62;58.47;101703.47;4804239;29;20236;-67
2022/04/18 06:42:13;;;;;;;21.42;14.60;;;7.70;48.50;;;7.73;58.02;101701.31;4790132;29;20335;-67
2022/04/18 06:44:47;;;;;;;19.35;14.40;;;7.70;46.70;;;7.84;58.07;101701.00;4789053;29;20233;-66
2022/04/18 06:47:17;;;;;;;23.25;15.80;;;7.70;46.30;;;7.94;57.84;101700.03;4790307;29;20679;-67
2022/04/18 06:50:06;;;;;;;20.38;14.98;;;7.90;46.70;;;8.28;57.26;101701.56;4790290;29;20202;-67
2022/04/18 06:52:55;;;;;;;17.95;13.80;;;8.10;44.80;;;8.48;56.12;101698.56;4790434;30;20741;-67
2022/04/18 06:58:46;;;;;;;18.25;11.95;;;8.40;39.00;;;8.75;55.41;101703.63;4790003;29;20200;-66
2022/04/18 07:01:15;;;;;;;18.10;13.63;;;8.60;36.90;;;8.82;55.38;101696.50;4807353;29;20201;-67
2022/04/18 07:03:44;;;;;;;18.33;11.75;;;8.70;35.50;;;9.13;54.72;101700.16;4807219;29;20201;-67
2022/04/18 07:06:13;;;;;;;18.60;14.15;;;8.90;34.70;;;9.10;54.95;101696.97;4809041;29;20221;-68
2022/04/18 07:08:45;;;;;;;16.65;12.98;;;9.00;33.70;;;9.32;54.65;101700.78;4811074;29;20232;-67
2022/04/18 07:11:34;;;;;;;20.17;14.13;;;9.10;33.70;;;9.49;54.13;101692.41;4810852;29;20209;-67
2022/04/18 07:14:04;;;;;;;17.80;14.40;;;9.30;31.90;;;9.64;53.87;101689.81;4824984;29;20206;-68
2022/04/18 07:16:33;;;;;;;25.10;20.77;;;9.50;30.90;;;9.59;53.85;101686.78;4810489;29;20703;-68
2022/04/18 07:19:02;;;;;;;13.10;11.68;;;9.50;29.60;;;9.82;53.35;101687.72;4811319;29;20270;-67
2022/04/18 07:21:31;;;;;;;15.55;11.43;;;9.70;29.10;;;9.85;52.72;101690.03;4825018;29;20208;-67
2022/04/18 07:24:02;;;;;;;18.27;16.17;;;9.70;27.60;;;9.87;52.63;101685.31;4825125;29;20205;-67
2022/04/18 07:26:32;;;;;;;28.90;25.95;;;9.80;26.60;;;9.96;52.28;101684.25;4810777;29;20731;-67
2022/04/18 07:29:01;;;;;;;22.40;20.13;;;9.90;26.00;;;9.94;52.41;101691.69;4810312;29;20265;-67
2022/04/18 07:31:31;;;;;;;19.60;14.10;;;10.00;24.70;;;10.00;51.78;101695.53;4808603;29;20198;-66
2022/04/18 07:34:00;;;;;;;10.57;9.45;;;10.00;23.70;;;10.24;50.78;101681.03;4820180;29;20699;-67
2022/04/18 07:36:30;;;;;;;13.68;12.07;;;10.10;22.20;;;10.35;50.80;101686.00;4805319;29;20221;-67
2022/04/18 07:38:59;;;;;;;11.00;8.40;;;10.20;21.60;;;10.37;50.16;101681.25;4805237;29;20205;-67
2022/04/18 07:41:44;;;;;;;14.57;9.60;;;10.30;19.40;;;10.55;49.68;101687.19;4805759;29;20627;-67
2022/04/18 07:44:14;;;;;;;11.17;8.47;;;10.40;13.30;;;10.53;49.03;101682.97;4806202;29;20466;-67
2022/04/18 07:46:44;;;;;;;9.43;7.80;;;10.50;99.90;;;10.60;48.98;101671.22;4823240;29;20434;-68
2022/04/18 07:49:21;;;;;;;10.50;9.27;;;10.60;99.90;;;10.41;49.41;101678.00;4823811;29;20565;-68
2022/04/18 07:51:52;;;;;;;9.83;8.83;;;10.50;99.90;;;10.59;49.25;101684.97;4808579;29;20992;-66
2022/04/18 07:54:37;;;;;;;10.30;8.63;;;10.50;99.90;;;10.65;49.40;101682.34;4805483;29;20475;-67
2022/04/18 07:57:08;;;;;;;10.27;8.50;;;10.50;99.90;;;11.02;48.22;101686.91;4805150;29;20461;-68
2022/04/18 07:59:44;;;;;;;11.37;8.30;;;10.80;99.90;;;11.13;48.32;101677.47;4805030;29;20450;-69
2022/04/18 08:02:13;;;;;;;18.33;9.30;;;10.90;99.90;;;11.20;47.90;101678.38;4804552;29;20478;-66
2022/04/18 08:05:00;;;;;;;15.33;13.57;;;11.10;99.90;;;11.06;48.47;101673.81;4806249;29;20438;-67
2022/04/18 08:07:55;;;;;;;16.23;8.53;;;11.10;99.90;;;11.00;48.54;101669.13;4804888;29;20436;-67
2022/04/18 08:10:24;;;;;;;12.00;9.90;;;10.90;98.10;;;11.25;48.15;101667.81;4806064;29;20442;-67
2022/04/18 08:12:55;;;;;;;13.83;11.60;;;11.00;98.50;;;11.28;48.05;101670.16;4804623;29;20440;-67
2022/04/18 08:15:38;;;;;;;14.17;11.17;;;11.10;95.90;;;11.62;47.18;101673.09;4805661;29;20434;-67
2022/04/18 08:18:18;;;;;;;12.63;9.07;;;11.40;95.80;;;11.54;46.80;101675.94;4819921;29;20453;-67
2022/04/18 08:20:53;;;;;;;11.77;9.83;;;11.50;94.30;;;11.53;47.11;101668.81;4804686;29;20429;-67
2022/04/18 08:23:22;;;;;;;18.50;12.47;;;11.50;91.90;;;11.59;47.19;101662.66;4804922;29;20490;-66
2022/04/18 08:25:56;;;;;;;9.47;8.57;;;11.50;92.80;;;11.81;46.60;101666.28;4804578;29;20462;-67
2022/04/18 08:28:40;;;;;;;10.10;9.10;;;11.60;90.10;;;12.00;46.07;101654.81;4806636;29;20554;-67
2022/04/18 08:31:11;;;;;;;9.80;8.50;;;11.80;92.00;;;12.31;44.63;101656.34;4819216;29;20492;-67
2022/04/18 08:33:57;;;;;;;8.97;8.00;;;12.00;99.90;;;11.93;45.69;101653.03;4803875;29;20549;-68
2022/04/18 08:36:26;;;;;;;13.40;10.20;;;11.90;6.90;;;12.23;44.94;101660.03;4803670;29;21065;-68
2022/04/18 08:38:57;;;;;;;9.63;7.37;;;12.10;9.80;;;12.38;45.08;101657.25;4804013;29;21085;-66
2022/04/18 08:41:50;;;;;;;13.63;8.33;;;12.20;10.50;;;12.47;44.83;101654.19;4803409;29;20458;-66
2022/04/18 08:44:27;;;;;;;9.77;7.20;;;12.30;10.10;;;12.53;44.32;101661.56;4803369;29;20474;-68
2022/04/18 08:46:58;;;;;;;7.47;6.23;;;12.40;9.10;;;12.88;42.59;101653.44;4803387;29;20526;-66
2022/04/18 08:55:12;;;;;;;10.23;9.30;;;12.70;5.60;;;12.60;42.59;101658.88;4802571;29;20461;-66
2022/04/18 08:57:41;;;;;;;8.60;6.50;;;12.60;5.60;;;12.49;43.19;101651.28;4805862;29;20479;-66
2022/04/18 09:00:14;;;;;;;8.00;5.67;;;12.50;5.80;;;12.84;42.34;101644.84;4804640;29;20435;-67
2022/04/18 09:02:47;;;;;;;7.43;5.43;;;12.60;6.00;;;12.94;42.41;101644.50;4800700;29;20462;-65
2022/04/18 09:05:25;;;;;;;8.33;5.13;;;12.70;5.50;;;12.94;41.93;101639.06;4803981;29;20478;-67
2022/04/18 09:08:03;;;;;;;8.27;6.30;;;12.70;4.40;;;13.13;41.54;101634.81;4789055;29;20451;-67
2022/04/18 09:10:37;;;;;;;8.50;6.60;;;12.90;4.30;;;13.12;41.61;101635.88;4791355;29;20439;-66
2022/04/18 09:13:09;;;;;;;8.60;7.80;;;13.00;4.10;;;13.31;41.26;101629.69;4803456;29;20949;-67
2022/04/18 09:16:04;;;;;;;15.43;14.33;;;13.10;3.50;;;13.38;41.20;101622.38;4803579;29;20815;-67
2022/04/18 09:18:34;;;;;;;9.10;6.13;;;13.20;3.20;;;13.36;40.06;101617.16;4802670;29;20791;-67
2022/04/18 09:21:11;;;;;;;7.23;6.30;;;13.30;1.40;;;13.54;40.31;101623.91;4801185;29;20429;-67
2022/04/18 09:23:42;;;;;;;11.83;8.80;;;13.40;1.90;;;13.41;40.64;101620.09;4816583;29;20835;-67
2022/04/18 09:26:31;;;;;;;7.90;6.57;;;13.30;1.90;;;13.17;41.02;101609.75;4822622;29;20446;-68
2022/04/18 09:29:07;;;;;;;8.00;5.47;;;13.10;1.90;;;13.46;40.50;101614.88;4807563;29;20534;-66
2022/04/18 09:31:43;;;;;;;7.33;5.13;;;13.30;1.90;;;13.38;40.87;101606.91;4803001;29;20421;-67
2022/04/18 09:34:27;;;;;;;8.70;6.03;;;13.20;2.00;;;13.67;40.92;101605.75;4785069;29;20503;-66
2022/04/18 09:37:17;;;;;;;9.13;5.77;;;13.40;2.50;;;13.88;40.10;101597.44;4816385;29;20482;-66
2022/04/18 09:39:54;;;;;;;9.97;7.83;;;13.50;1.70;;;13.89;39.22;101587.41;4802966;29;20483;-67
2022/04/18 09:42:25;;;;;;;7.20;4.87;;;13.70;1.00;;;14.13;39.44;101589.53;4804612;29;20932;-66
2022/04/18 09:45:09;;;;;;;5.50;4.77;;;13.80;1.00;;;14.09;39.35;101588.25;4823647;24;20870;-63
2022/04/18 09:47:43;;;;;;;7.40;5.30;;;13.90;1.00;;;13.98;39.63;101590.75;4815848;29;20428;-64
2022/04/18 09:50:58;;;;;;;6.17;4.37;;;13.80;1.00;;;13.99;39.12;101589.72;4823389;29;20507;-63
2022/04/18 09:53:18;;;;;;;4.63;4.10;;;13.80;1.00;;;14.28;38.78;101576.50;4820823;29;20528;-63
2022/04/18 09:55:48;;;;;;;5.47;4.90;;;13.90;1.00;;;14.32;38.38;101572.34;4821909;29;20509;-63
2022/04/18 09:58:17;;;;;;;6.03;4.10;;;14.10;1.00;;;14.54;38.00;101574.84;4821966;29;20490;-64
2022/04/18 10:01:07;;;;;;;5.53;4.10;;;14.20;1.00;;;14.20;38.35;101567.72;4822052;29;20505;-63
2022/04/18 10:03:40;;;;;;;5.87;4.53;;;14.20;1.00;;;14.04;38.71;101565.44;4822266;29;20439;-64
2022/04/18 10:06:09;;;;;;;6.63;5.00;;;14.00;1.00;;;14.32;38.77;101566.91;4820502;29;20496;-64
2022/04/18 10:08:39;;;;;;;6.20;4.40;;;14.10;1.00;;;14.14;38.75;101569.41;4808173;29;20871;-64
2022/04/18 10:11:11;;;;;;;6.80;4.50;;;14.00;1.00;;;13.91;39.19;101568.97;4800916;29;20460;-64
2022/04/18 10:13:41;;;;;;;5.13;4.57;;;13.70;1.00;;;14.25;38.57;101551.59;4794028;29;20490;-64
2022/04/18 10:16:10;;;;;;;5.90;4.40;;;14.00;1.00;;;13.89;39.22;101557.47;4803462;29;20836;-63
2022/04/18 10:18:47;;;;;;;4.90;4.23;;;13.80;1.00;;;14.18;39.31;101558.94;4803692;29;20479;-63
2022/04/18 10:21:28;;;;;;;7.47;5.17;;;13.90;1.00;;;14.61;38.39;101556.63;4803827;29;20466;-63
2022/04/18 10:24:53;;;;;;;5.83;4.17;;;14.20;1.00;;;14.82;37.75;101550.91;4802612;29;20473;-63
2022/04/18 10:27:40;;;;;;;7.60;5.20;;;14.40;1.00;;;14.97;37.15;101543.31;4803770;29;20414;-64
2022/04/18 10:30:12;;;;;;;6.40;3.97;;;14.50;1.00;;;14.98;37.15;101539.53;4802344;29;20422;-65
2022/04/18 10:32:41;;;;;;;4.23;3.83;;;14.70;1.00;;;15.21;36.85;101550.75;4803639;29;20451;-63
2022/04/18 10:35:14;;;;;;;5.03;3.83;;;14.80;7.50;;;15.06;37.30;101542.00;4803531;29;20870;-63
2022/04/18 10:37:44;;;;;;;5.53;4.40;;;14.90;4.40;;;14.91;37.14;101538.72;4803333;29;20445;-64
2022/04/18 10:40:19;;;;;;;4.00;3.10;;;14.80;2.90;;;14.45;37.21;101538.84;4804261;29;20413;-64
2022/04/18 10:42:48;;;;;;;3.57;3.27;;;14.50;1.00;;;14.55;37.50;101536.53;4803805;29;20470;-64
2022/04/18 10:45:23;;;;;;;5.93;3.80;;;14.40;1.00;;;14.72;37.10;101536.88;4803530;29;20475;-64
2022/04/18 10:48:13;;;;;;;4.37;3.70;;;14.50;4.30;;;14.76;36.99;101540.88;4805615;29;20914;-63
2022/04/18 10:50:50;;;;;;;5.47;3.57;;;14.60;1.00;;;14.59;37.06;101534.19;4805387;29;20528;-64
2022/04/18 10:53:34;;;;;;;5.23;2.90;;;14.60;1.00;;;14.61;37.54;101526.66;4806641;29;20405;-64
2022/04/18 10:56:13;;;;;;;3.43;3.10;;;14.40;1.00;;;14.55;37.52;101531.06;4806356;29;20887;-64
2022/04/18 10:58:47;;;;;;;4.40;3.37;;;14.40;1.00;;;15.01;36.55;101532.81;4806506;29;20808;-64
2022/04/18 11:01:19;;;;;;;4.90;3.53;;;14.70;1.00;;;15.05;36.60;101524.00;4806620;29;20431;-64
2022/04/18 11:03:58;;;;;;;3.53;2.27;;;14.80;1.00;;;14.83;37.36;101514.44;4805899;29;20458;-63